Terminal Aerodrome Forecast
Issued by NWS Twin Cities, MN

Home | Current Version | Previous Version | Text Only | Print | Product List | Glossary Off
Versions: 1 2 3 4 5 6 7 8 9 10 11 12 13 14 15 16 17 18 19 20 21 22 23 24 25 26

747
FTUS43 KMPX 251503 AAA
TAFMSP
TAF AMD
KMSP 251503Z 2515/2618 15010G16KT P6SM SCT020 BKN250
     FM260000 14007KT P6SM SCT050 OVC090
     FM260600 15006KT P6SM VCSH BKN050
     FM261400 15009KT P6SM SCT050=

USA.gov is the U.S. government's official web portal to all federal, state and local government web resources and services.